sensor_id;sensor_type;location;lat;lon;timestamp;P1;durP1;ratioP1;P2;durP2;ratioP2
58338;SDS011;48278;52.704;6.536;2023-01-31T00:01:23;31.50;;;1.75;;
58338;SDS011;48278;52.704;6.536;2023-01-31T00:03:54;36.58;;;3.20;;
58338;SDS011;48278;52.704;6.536;2023-01-31T00:06:23;29.25;;;2.25;;
58338;SDS011;48278;52.704;6.536;2023-01-31T00:08:54;38.83;;;2.15;;
58338;SDS011;48278;52.704;6.536;2023-01-31T00:11:22;34.00;;;1.75;;
58338;SDS011;48278;52.704;6.536;2023-01-31T00:13:50;34.28;;;2.05;;
58338;SDS011;48278;52.704;6.536;2023-01-31T00:16:16;38.42;;;3.13;;
58338;SDS011;48278;52.704;6.536;2023-01-31T00:18:44;37.53;;;2.78;;
58338;SDS011;48278;52.704;6.536;2023-01-31T00:21:11;40.70;;;2.33;;
58338;SDS011;48278;52.704;6.536;2023-01-31T00:23:39;43.03;;;2.17;;
58338;SDS011;48278;52.704;6.536;2023-01-31T00:28:59;39.40;;;2.78;;
58338;SDS011;48278;52.704;6.536;2023-01-31T00:31:27;39.90;;;3.55;;
58338;SDS011;48278;52.704;6.536;2023-01-31T00:33:55;46.05;;;2.08;;
58338;SDS011;48278;52.704;6.536;2023-01-31T00:36:25;31.20;;;2.35;;
58338;SDS011;48278;52.704;6.536;2023-01-31T00:38:53;39.25;;;2.50;;
58338;SDS011;48278;52.704;6.536;2023-01-31T00:41:20;36.55;;;2.97;;
58338;SDS011;48278;52.704;6.536;2023-01-31T00:43:48;40.80;;;2.25;;
58338;SDS011;48278;52.704;6.536;2023-01-31T00:46:14;33.27;;;1.90;;
58338;SDS011;48278;52.704;6.536;2023-01-31T00:48:40;45.03;;;2.10;;
58338;SDS011;48278;52.704;6.536;2023-01-31T00:51:06;32.85;;;2.10;;
58338;SDS011;48278;52.704;6.536;2023-01-31T00:53:33;33.03;;;1.80;;
58338;SDS011;48278;52.704;6.536;2023-01-31T00:56:06;22.45;;;1.50;;
58338;SDS011;48278;52.704;6.536;2023-01-31T00:58:33;36.67;;;2.70;;
58338;SDS011;48278;52.704;6.536;2023-01-31T01:03:32;29.27;;;2.35;;
58338;SDS011;48278;52.704;6.536;2023-01-31T01:05:58;33.20;;;2.35;;
58338;SDS011;48278;52.704;6.536;2023-01-31T01:08:24;29.38;;;1.45;;
58338;SDS011;48278;52.704;6.536;2023-01-31T01:10:49;30.23;;;2.55;;
58338;SDS011;48278;52.704;6.536;2023-01-31T01:13:15;23.33;;;2.10;;
58338;SDS011;48278;52.704;6.536;2023-01-31T01:15:41;39.38;;;2.17;;
58338;SDS011;48278;52.704;6.536;2023-01-31T01:18:07;28.33;;;1.42;;
58338;SDS011;48278;52.704;6.536;2023-01-31T01:20:33;19.15;;;1.77;;
58338;SDS011;48278;52.704;6.536;2023-01-31T01:22:59;26.20;;;1.80;;
58338;SDS011;48278;52.704;6.536;2023-01-31T01:25:24;32.58;;;2.50;;
58338;SDS011;48278;52.704;6.536;2023-01-31T01:27:50;34.67;;;1.70;;
58338;SDS011;48278;52.704;6.536;2023-01-31T01:30:16;36.38;;;2.25;;
58338;SDS011;48278;52.704;6.536;2023-01-31T01:32:42;28.40;;;1.80;;
58338;SDS011;48278;52.704;6.536;2023-01-31T01:35:08;39.90;;;2.38;;
58338;SDS011;48278;52.704;6.536;2023-01-31T01:37:34;24.70;;;1.33;;
58338;SDS011;48278;52.704;6.536;2023-01-31T01:40:00;25.38;;;1.42;;
58338;SDS011;48278;52.704;6.536;2023-01-31T01:42:25;29.98;;;1.90;;
58338;SDS011;48278;52.704;6.536;2023-01-31T01:44:56;21.05;;;1.50;;
58338;SDS011;48278;52.704;6.536;2023-01-31T01:52:53;29.08;;;1.67;;
58338;SDS011;48278;52.704;6.536;2023-01-31T01:55:34;25.48;;;1.15;;
58338;SDS011;48278;52.704;6.536;2023-01-31T01:58:13;42.38;;;1.75;;
58338;SDS011;48278;52.704;6.536;2023-01-31T02:00:41;28.35;;;1.30;;
58338;SDS011;48278;52.704;6.536;2023-01-31T02:03:09;34.33;;;3.65;;
58338;SDS011;48278;52.704;6.536;2023-01-31T02:05:38;28.50;;;2.17;;
58338;SDS011;48278;52.704;6.536;2023-01-31T02:08:06;28.27;;;1.52;;
58338;SDS011;48278;52.704;6.536;2023-01-31T02:10:34;26.13;;;1.70;;
58338;SDS011;48278;52.704;6.536;2023-01-31T02:13:11;26.75;;;2.75;;
58338;SDS011;48278;52.704;6.536;2023-01-31T02:15:38;25.27;;;1.42;;
58338;SDS011;48278;52.704;6.536;2023-01-31T02:18:04;35.90;;;1.80;;
58338;SDS011;48278;52.704;6.536;2023-01-31T02:34:36;38.53;;;2.63;;
58338;SDS011;48278;52.704;6.536;2023-01-31T02:43:14;23.55;;;1.55;;
58338;SDS011;48278;52.704;6.536;2023-01-31T02:46:01;25.58;;;1.67;;
58338;SDS011;48278;52.704;6.536;2023-01-31T02:51:11;38.45;;;2.17;;
58338;SDS011;48278;52.704;6.536;2023-01-31T02:53:55;27.08;;;2.03;;
58338;SDS011;48278;52.704;6.536;2023-01-31T02:56:30;28.95;;;2.92;;
58338;SDS011;48278;52.704;6.536;2023-01-31T02:59:06;39.53;;;2.28;;
58338;SDS011;48278;52.704;6.536;2023-01-31T03:01:40;40.15;;;2.75;;
58338;SDS011;48278;52.704;6.536;2023-01-31T03:04:10;25.70;;;1.80;;
58338;SDS011;48278;52.704;6.536;2023-01-31T03:06:40;32.88;;;2.83;;
58338;SDS011;48278;52.704;6.536;2023-01-31T03:09:57;30.10;;;2.05;;
58338;SDS011;48278;52.704;6.536;2023-01-31T03:13:07;37.03;;;2.42;;
58338;SDS011;48278;52.704;6.536;2023-01-31T03:18:39;26.38;;;1.60;;
58338;SDS011;48278;52.704;6.536;2023-01-31T03:21:26;38.13;;;3.05;;
58338;SDS011;48278;52.704;6.536;2023-01-31T03:23:58;33.65;;;2.38;;
58338;SDS011;48278;52.704;6.536;2023-01-31T03:26:25;26.45;;;2.95;;
58338;SDS011;48278;52.704;6.536;2023-01-31T03:28:52;36.40;;;2.55;;
58338;SDS011;48278;52.704;6.536;2023-01-31T03:31:25;41.47;;;3.55;;
58338;SDS011;48278;52.704;6.536;2023-01-31T03:34:01;42.10;;;4.10;;
58338;SDS011;48278;52.704;6.536;2023-01-31T03:42:02;28.88;;;3.38;;
58338;SDS011;48278;52.704;6.536;2023-01-31T03:47:49;32.72;;;2.83;;
58338;SDS011;48278;52.704;6.536;2023-01-31T03:50:18;27.83;;;2.38;;
58338;SDS011;48278;52.704;6.536;2023-01-31T03:52:54;31.52;;;2.75;;
58338;SDS011;48278;52.704;6.536;2023-01-31T03:55:30;44.08;;;3.15;;
58338;SDS011;48278;52.704;6.536;2023-01-31T03:57:59;41.40;;;4.25;;
58338;SDS011;48278;52.704;6.536;2023-01-31T04:00:28;30.05;;;2.72;;
58338;SDS011;48278;52.704;6.536;2023-01-31T04:03:03;35.83;;;3.35;;
58338;SDS011;48278;52.704;6.536;2023-01-31T04:05:37;37.92;;;3.05;;
58338;SDS011;48278;52.704;6.536;2023-01-31T04:08:04;43.35;;;4.07;;
58338;SDS011;48278;52.704;6.536;2023-01-31T04:10:30;20.17;;;2.17;;
58338;SDS011;48278;52.704;6.536;2023-01-31T04:12:56;30.88;;;2.60;;
58338;SDS011;48278;52.704;6.536;2023-01-31T04:15:22;50.75;;;4.10;;
58338;SDS011;48278;52.704;6.536;2023-01-31T04:17:48;38.67;;;3.95;;
58338;SDS011;48278;52.704;6.536;2023-01-31T04:20:14;32.00;;;2.72;;
58338;SDS011;48278;52.704;6.536;2023-01-31T04:22:40;49.72;;;3.50;;
58338;SDS011;48278;52.704;6.536;2023-01-31T04:25:06;35.03;;;3.28;;
58338;SDS011;48278;52.704;6.536;2023-01-31T04:27:32;33.70;;;3.22;;
58338;SDS011;48278;52.704;6.536;2023-01-31T04:29:58;43.05;;;4.00;;
58338;SDS011;48278;52.704;6.536;2023-01-31T04:32:23;40.67;;;3.95;;
58338;SDS011;48278;52.704;6.536;2023-01-31T04:34:49;42.30;;;4.85;;
58338;SDS011;48278;52.704;6.536;2023-01-31T04:37:15;44.45;;;3.30;;
58338;SDS011;48278;52.704;6.536;2023-01-31T04:39:41;30.30;;;3.67;;
58338;SDS011;48278;52.704;6.536;2023-01-31T04:42:07;42.92;;;4.93;;
58338;SDS011;48278;52.704;6.536;2023-01-31T04:44:32;51.85;;;4.60;;
58338;SDS011;48278;52.704;6.536;2023-01-31T04:46:58;44.65;;;4.80;;
58338;SDS011;48278;52.704;6.536;2023-01-31T04:49:24;38.25;;;4.40;;
58338;SDS011;48278;52.704;6.536;2023-01-31T04:51:50;37.17;;;4.20;;
58338;SDS011;48278;52.704;6.536;2023-01-31T04:54:16;35.40;;;5.25;;
58338;SDS011;48278;52.704;6.536;2023-01-31T04:56:42;45.40;;;5.63;;
58338;SDS011;48278;52.704;6.536;2023-01-31T04:59:08;35.45;;;4.68;;
58338;SDS011;48278;52.704;6.536;2023-01-31T05:01:33;45.30;;;4.90;;
58338;SDS011;48278;52.704;6.536;2023-01-31T05:03:59;49.70;;;6.68;;
58338;SDS011;48278;52.704;6.536;2023-01-31T05:06:25;47.42;;;5.40;;
58338;SDS011;48278;52.704;6.536;2023-01-31T05:08:50;45.90;;;4.80;;
58338;SDS011;48278;52.704;6.536;2023-01-31T05:11:18;53.55;;;5.57;;
58338;SDS011;48278;52.704;6.536;2023-01-31T05:13:44;45.90;;;5.70;;
58338;SDS011;48278;52.704;6.536;2023-01-31T05:16:11;39.47;;;7.13;;
58338;SDS011;48278;52.704;6.536;2023-01-31T05:18:37;57.97;;;5.82;;
58338;SDS011;48278;52.704;6.536;2023-01-31T05:21:04;55.25;;;6.00;;
58338;SDS011;48278;52.704;6.536;2023-01-31T05:23:31;54.03;;;5.97;;
58338;SDS011;48278;52.704;6.536;2023-01-31T05:25:57;54.60;;;6.32;;
58338;SDS011;48278;52.704;6.536;2023-01-31T05:28:23;66.95;;;6.65;;
58338;SDS011;48278;52.704;6.536;2023-01-31T05:33:25;54.78;;;8.05;;
58338;SDS011;48278;52.704;6.536;2023-01-31T05:35:51;56.83;;;7.95;;
58338;SDS011;48278;52.704;6.536;2023-01-31T05:38:17;56.90;;;7.15;;
58338;SDS011;48278;52.704;6.536;2023-01-31T05:40:44;60.72;;;6.90;;
58338;SDS011;48278;52.704;6.536;2023-01-31T05:43:10;48.13;;;7.70;;
58338;SDS011;48278;52.704;6.536;2023-01-31T05:45:36;64.20;;;8.35;;
58338;SDS011;48278;52.704;6.536;2023-01-31T05:48:02;55.30;;;7.18;;
58338;SDS011;48278;52.704;6.536;2023-01-31T05:50:28;56.72;;;7.88;;
58338;SDS011;48278;52.704;6.536;2023-01-31T05:52:55;59.33;;;8.18;;
58338;SDS011;48278;52.704;6.536;2023-01-31T05:55:24;67.97;;;9.30;;
58338;SDS011;48278;52.704;6.536;2023-01-31T05:57:52;47.65;;;6.60;;
58338;SDS011;48278;52.704;6.536;2023-01-31T06:00:18;50.25;;;9.05;;
58338;SDS011;48278;52.704;6.536;2023-01-31T06:02:45;55.55;;;8.32;;
58338;SDS011;48278;52.704;6.536;2023-01-31T06:05:12;62.25;;;11.00;;
58338;SDS011;48278;52.704;6.536;2023-01-31T06:07:38;60.93;;;8.97;;
58338;SDS011;48278;52.704;6.536;2023-01-31T06:10:06;52.00;;;9.63;;
58338;SDS011;48278;52.704;6.536;2023-01-31T06:12:36;54.70;;;8.68;;
58338;SDS011;48278;52.704;6.536;2023-01-31T06:15:02;63.83;;;10.02;;
58338;SDS011;48278;52.704;6.536;2023-01-31T06:17:29;67.13;;;10.40;;
58338;SDS011;48278;52.704;6.536;2023-01-31T06:19:54;69.63;;;11.45;;
58338;SDS011;48278;52.704;6.536;2023-01-31T06:22:20;59.15;;;11.15;;
58338;SDS011;48278;52.704;6.536;2023-01-31T06:24:46;57.53;;;10.35;;
58338;SDS011;48278;52.704;6.536;2023-01-31T06:27:12;82.30;;;12.70;;
58338;SDS011;48278;52.704;6.536;2023-01-31T06:29:37;68.15;;;11.25;;
58338;SDS011;48278;52.704;6.536;2023-01-31T06:32:03;72.78;;;10.20;;
58338;SDS011;48278;52.704;6.536;2023-01-31T06:34:30;70.93;;;11.02;;
58338;SDS011;48278;52.704;6.536;2023-01-31T06:36:55;59.78;;;11.13;;
58338;SDS011;48278;52.704;6.536;2023-01-31T06:39:23;50.03;;;8.60;;
58338;SDS011;48278;52.704;6.536;2023-01-31T06:41:48;59.58;;;10.48;;
58338;SDS011;48278;52.704;6.536;2023-01-31T06:44:14;59.65;;;10.07;;
58338;SDS011;48278;52.704;6.536;2023-01-31T06:46:40;65.18;;;10.50;;
58338;SDS011;48278;52.704;6.536;2023-01-31T06:49:06;63.25;;;9.43;;
58338;SDS011;48278;52.704;6.536;2023-01-31T06:51:31;76.10;;;11.00;;
58338;SDS011;48278;52.704;6.536;2023-01-31T06:53:57;61.97;;;9.93;;
58338;SDS011;48278;52.704;6.536;2023-01-31T06:56:23;73.70;;;11.93;;
58338;SDS011;48278;52.704;6.536;2023-01-31T06:58:49;57.22;;;8.40;;
58338;SDS011;48278;52.704;6.536;2023-01-31T07:01:14;57.33;;;8.73;;
58338;SDS011;48278;52.704;6.536;2023-01-31T07:03:40;58.08;;;9.57;;
58338;SDS011;48278;52.704;6.536;2023-01-31T07:06:06;59.55;;;9.10;;
58338;SDS011;48278;52.704;6.536;2023-01-31T07:08:33;46.63;;;7.00;;
58338;SDS011;48278;52.704;6.536;2023-01-31T07:11:00;59.23;;;9.73;;
58338;SDS011;48278;52.704;6.536;2023-01-31T07:13:26;46.97;;;7.70;;
58338;SDS011;48278;52.704;6.536;2023-01-31T07:15:52;55.63;;;7.75;;
58338;SDS011;48278;52.704;6.536;2023-01-31T07:18:19;59.03;;;9.37;;
58338;SDS011;48278;52.704;6.536;2023-01-31T07:20:45;47.28;;;7.20;;
58338;SDS011;48278;52.704;6.536;2023-01-31T07:23:10;43.45;;;7.88;;
58338;SDS011;48278;52.704;6.536;2023-01-31T07:25:36;46.67;;;6.82;;
58338;SDS011;48278;52.704;6.536;2023-01-31T07:28:02;46.83;;;7.82;;
58338;SDS011;48278;52.704;6.536;2023-01-31T07:30:28;57.80;;;7.68;;
58338;SDS011;48278;52.704;6.536;2023-01-31T07:32:54;42.72;;;7.15;;
58338;SDS011;48278;52.704;6.536;2023-01-31T07:35:20;51.08;;;7.97;;
58338;SDS011;48278;52.704;6.536;2023-01-31T07:37:46;53.58;;;6.40;;
58338;SDS011;48278;52.704;6.536;2023-01-31T07:40:15;50.22;;;5.97;;
58338;SDS011;48278;52.704;6.536;2023-01-31T07:42:41;66.07;;;8.48;;
58338;SDS011;48278;52.704;6.536;2023-01-31T07:45:07;48.15;;;6.38;;
58338;SDS011;48278;52.704;6.536;2023-01-31T07:47:35;63.03;;;7.45;;
58338;SDS011;48278;52.704;6.536;2023-01-31T07:50:01;48.65;;;5.35;;
58338;SDS011;48278;52.704;6.536;2023-01-31T07:52:27;54.35;;;6.25;;
58338;SDS011;48278;52.704;6.536;2023-01-31T07:54:53;47.30;;;6.22;;
58338;SDS011;48278;52.704;6.536;2023-01-31T07:57:19;57.17;;;5.88;;
58338;SDS011;48278;52.704;6.536;2023-01-31T07:59:44;50.20;;;5.28;;
58338;SDS011;48278;52.704;6.536;2023-01-31T08:02:11;41.38;;;5.53;;
58338;SDS011;48278;52.704;6.536;2023-01-31T08:04:56;55.35;;;7.10;;
58338;SDS011;48278;52.704;6.536;2023-01-31T08:07:21;45.08;;;7.10;;
58338;SDS011;48278;52.704;6.536;2023-01-31T08:09:47;35.00;;;5.85;;
58338;SDS011;48278;52.704;6.536;2023-01-31T08:12:14;45.00;;;6.17;;
58338;SDS011;48278;52.704;6.536;2023-01-31T08:14:41;61.78;;;7.65;;
58338;SDS011;48278;52.704;6.536;2023-01-31T08:17:07;52.17;;;7.03;;
58338;SDS011;48278;52.704;6.536;2023-01-31T08:19:34;48.05;;;6.63;;
58338;SDS011;48278;52.704;6.536;2023-01-31T08:22:00;51.90;;;6.53;;
58338;SDS011;48278;52.704;6.536;2023-01-31T08:24:27;59.88;;;7.38;;
58338;SDS011;48278;52.704;6.536;2023-01-31T08:26:54;49.88;;;7.05;;
58338;SDS011;48278;52.704;6.536;2023-01-31T08:29:20;45.55;;;6.30;;
58338;SDS011;48278;52.704;6.536;2023-01-31T08:31:47;43.35;;;6.95;;
58338;SDS011;48278;52.704;6.536;2023-01-31T08:34:12;35.55;;;6.32;;
58338;SDS011;48278;52.704;6.536;2023-01-31T08:36:38;55.65;;;7.22;;
58338;SDS011;48278;52.704;6.536;2023-01-31T08:39:04;53.25;;;6.70;;
58338;SDS011;48278;52.704;6.536;2023-01-31T08:41:31;53.70;;;8.13;;
58338;SDS011;48278;52.704;6.536;2023-01-31T08:43:57;48.95;;;7.47;;
58338;SDS011;48278;52.704;6.536;2023-01-31T08:46:25;43.33;;;8.00;;
58338;SDS011;48278;52.704;6.536;2023-01-31T08:48:54;44.80;;;7.68;;
58338;SDS011;48278;52.704;6.536;2023-01-31T08:51:23;46.95;;;7.28;;
58338;SDS011;48278;52.704;6.536;2023-01-31T08:53:49;55.17;;;8.98;;
58338;SDS011;48278;52.704;6.536;2023-01-31T08:56:15;63.67;;;10.73;;
58338;SDS011;48278;52.704;6.536;2023-01-31T08:58:42;39.80;;;7.55;;
58338;SDS011;48278;52.704;6.536;2023-01-31T09:03:36;41.10;;;8.35;;
58338;SDS011;48278;52.704;6.536;2023-01-31T09:06:03;42.10;;;7.45;;
58338;SDS011;48278;52.704;6.536;2023-01-31T09:08:32;39.67;;;7.60;;
58338;SDS011;48278;52.704;6.536;2023-01-31T09:10:58;39.40;;;7.55;;
58338;SDS011;48278;52.704;6.536;2023-01-31T09:13:27;39.25;;;7.25;;
58338;SDS011;48278;52.704;6.536;2023-01-31T09:18:23;41.75;;;7.70;;
58338;SDS011;48278;52.704;6.536;2023-01-31T09:20:49;52.97;;;7.85;;
58338;SDS011;48278;52.704;6.536;2023-01-31T09:23:14;35.95;;;6.85;;
58338;SDS011;48278;52.704;6.536;2023-01-31T09:25:40;30.98;;;6.80;;
58338;SDS011;48278;52.704;6.536;2023-01-31T09:28:06;36.50;;;5.90;;
58338;SDS011;48278;52.704;6.536;2023-01-31T09:30:31;34.60;;;6.35;;
58338;SDS011;48278;52.704;6.536;2023-01-31T09:32:58;39.17;;;6.40;;
58338;SDS011;48278;52.704;6.536;2023-01-31T09:35:25;39.17;;;6.63;;
58338;SDS011;48278;52.704;6.536;2023-01-31T09:37:51;36.13;;;5.60;;
58338;SDS011;48278;52.704;6.536;2023-01-31T09:40:19;37.22;;;6.95;;
58338;SDS011;48278;52.704;6.536;2023-01-31T09:42:47;41.90;;;6.07;;
58338;SDS011;48278;52.704;6.536;2023-01-31T09:45:14;41.25;;;7.68;;
58338;SDS011;48278;52.704;6.536;2023-01-31T09:47:57;34.10;;;5.82;;
58338;SDS011;48278;52.704;6.536;2023-01-31T09:53:34;36.08;;;5.28;;
58338;SDS011;48278;52.704;6.536;2023-01-31T09:58:34;39.33;;;6.07;;
58338;SDS011;48278;52.704;6.536;2023-01-31T10:12:16;37.85;;;5.03;;
58338;SDS011;48278;52.704;6.536;2023-01-31T10:15:09;37.22;;;3.88;;
58338;SDS011;48278;52.704;6.536;2023-01-31T10:18:15;23.40;;;3.88;;
58338;SDS011;48278;52.704;6.536;2023-01-31T10:20:48;25.33;;;3.85;;
58338;SDS011;48278;52.704;6.536;2023-01-31T10:23:22;35.08;;;5.53;;
58338;SDS011;48278;52.704;6.536;2023-01-31T10:26:05;34.20;;;4.13;;
58338;SDS011;48278;52.704;6.536;2023-01-31T10:31:34;23.85;;;4.20;;
58338;SDS011;48278;52.704;6.536;2023-01-31T10:36:56;25.92;;;3.75;;
58338;SDS011;48278;52.704;6.536;2023-01-31T10:39:32;28.65;;;4.43;;
58338;SDS011;48278;52.704;6.536;2023-01-31T10:47:33;26.00;;;3.78;;
58338;SDS011;48278;52.704;6.536;2023-01-31T10:50:01;25.38;;;4.00;;
58338;SDS011;48278;52.704;6.536;2023-01-31T10:58:09;32.60;;;4.50;;
58338;SDS011;48278;52.704;6.536;2023-01-31T11:00:41;32.72;;;4.32;;
58338;SDS011;48278;52.704;6.536;2023-01-31T11:03:09;23.07;;;4.03;;
58338;SDS011;48278;52.704;6.536;2023-01-31T11:05:36;34.83;;;5.25;;
58338;SDS011;48278;52.704;6.536;2023-01-31T11:11:03;33.45;;;5.10;;
58338;SDS011;48278;52.704;6.536;2023-01-31T11:13:32;44.22;;;5.90;;
58338;SDS011;48278;52.704;6.536;2023-01-31T11:15:58;45.40;;;5.50;;
58338;SDS011;48278;52.704;6.536;2023-01-31T11:20:55;46.50;;;6.43;;
58338;SDS011;48278;52.704;6.536;2023-01-31T11:23:22;38.28;;;5.90;;
58338;SDS011;48278;52.704;6.536;2023-01-31T11:25:51;54.88;;;6.68;;
58338;SDS011;48278;52.704;6.536;2023-01-31T11:28:35;37.50;;;6.20;;
58338;SDS011;48278;52.704;6.536;2023-01-31T11:31:06;46.28;;;7.18;;
58338;SDS011;48278;52.704;6.536;2023-01-31T11:36:16;40.22;;;7.22;;
58338;SDS011;48278;52.704;6.536;2023-01-31T11:38:51;56.03;;;8.10;;
58338;SDS011;48278;52.704;6.536;2023-01-31T11:41:27;43.15;;;6.85;;
58338;SDS011;48278;52.704;6.536;2023-01-31T11:44:07;39.33;;;7.75;;
58338;SDS011;48278;52.704;6.536;2023-01-31T11:46:42;50.90;;;8.48;;
58338;SDS011;48278;52.704;6.536;2023-01-31T11:49:12;43.33;;;7.03;;
58338;SDS011;48278;52.704;6.536;2023-01-31T11:51:42;42.95;;;6.20;;
58338;SDS011;48278;52.704;6.536;2023-01-31T11:54:10;44.72;;;8.10;;
58338;SDS011;48278;52.704;6.536;2023-01-31T11:56:41;57.45;;;5.82;;
58338;SDS011;48278;52.704;6.536;2023-01-31T11:59:10;42.05;;;7.30;;
58338;SDS011;48278;52.704;6.536;2023-01-31T12:01:49;31.60;;;6.32;;
58338;SDS011;48278;52.704;6.536;2023-01-31T12:04:24;38.85;;;6.28;;
58338;SDS011;48278;52.704;6.536;2023-01-31T12:07:00;44.35;;;6.70;;
58338;SDS011;48278;52.704;6.536;2023-01-31T12:09:41;44.80;;;7.47;;
58338;SDS011;48278;52.704;6.536;2023-01-31T12:14:45;40.80;;;5.28;;
58338;SDS011;48278;52.704;6.536;2023-01-31T12:17:12;32.10;;;4.55;;
58338;SDS011;48278;52.704;6.536;2023-01-31T12:22:35;49.38;;;5.95;;
58338;SDS011;48278;52.704;6.536;2023-01-31T12:37:24;34.78;;;4.22;;
58338;SDS011;48278;52.704;6.536;2023-01-31T12:42:36;32.75;;;4.15;;
58338;SDS011;48278;52.704;6.536;2023-01-31T12:45:33;34.58;;;3.78;;
58338;SDS011;48278;52.704;6.536;2023-01-31T12:54:03;40.72;;;4.97;;
58338;SDS011;48278;52.704;6.536;2023-01-31T13:04:35;25.45;;;3.67;;
58338;SDS011;48278;52.704;6.536;2023-01-31T13:07:12;27.80;;;3.00;;
58338;SDS011;48278;52.704;6.536;2023-01-31T13:09:43;37.10;;;3.25;;
58338;SDS011;48278;52.704;6.536;2023-01-31T13:12:16;26.55;;;3.90;;
58338;SDS011;48278;52.704;6.536;2023-01-31T13:14:48;23.23;;;3.05;;
58338;SDS011;48278;52.704;6.536;2023-01-31T13:17:25;28.25;;;3.05;;
58338;SDS011;48278;52.704;6.536;2023-01-31T13:20:06;28.85;;;3.55;;
58338;SDS011;48278;52.704;6.536;2023-01-31T13:22:45;29.67;;;3.60;;
58338;SDS011;48278;52.704;6.536;2023-01-31T13:27:51;30.20;;;3.50;;
58338;SDS011;48278;52.704;6.536;2023-01-31T13:30:35;20.02;;;3.28;;
58338;SDS011;48278;52.704;6.536;2023-01-31T13:35:58;26.27;;;3.70;;
58338;SDS011;48278;52.704;6.536;2023-01-31T13:38:40;25.88;;;3.42;;
58338;SDS011;48278;52.704;6.536;2023-01-31T13:43:58;26.27;;;3.25;;
58338;SDS011;48278;52.704;6.536;2023-01-31T13:46:31;17.88;;;2.50;;
58338;SDS011;48278;52.704;6.536;2023-01-31T13:49:02;19.17;;;2.83;;
58338;SDS011;48278;52.704;6.536;2023-01-31T13:51:37;30.80;;;3.50;;
58338;SDS011;48278;52.704;6.536;2023-01-31T13:55:08;19.73;;;2.42;;
58338;SDS011;48278;52.704;6.536;2023-01-31T13:57:06;33.85;;;3.55;;
58338;SDS011;48278;52.704;6.536;2023-01-31T13:59:45;24.42;;;2.17;;
58338;SDS011;48278;52.704;6.536;2023-01-31T14:02:18;26.55;;;3.50;;
58338;SDS011;48278;52.704;6.536;2023-01-31T14:04:44;30.13;;;4.18;;
58338;SDS011;48278;52.704;6.536;2023-01-31T14:09:42;27.20;;;3.75;;
58338;SDS011;48278;52.704;6.536;2023-01-31T14:14:43;24.27;;;4.18;;
58338;SDS011;48278;52.704;6.536;2023-01-31T14:22:17;29.60;;;3.60;;
58338;SDS011;48278;52.704;6.536;2023-01-31T14:32:48;27.00;;;3.58;;
58338;SDS011;48278;52.704;6.536;2023-01-31T14:38:54;22.27;;;3.38;;
58338;SDS011;48278;52.704;6.536;2023-01-31T14:50:03;28.38;;;3.33;;
58338;SDS011;48278;52.704;6.536;2023-01-31T14:55:39;30.33;;;3.00;;
58338;SDS011;48278;52.704;6.536;2023-01-31T14:58:13;35.83;;;3.33;;
58338;SDS011;48278;52.704;6.536;2023-01-31T15:00:47;27.52;;;3.83;;
58338;SDS011;48278;52.704;6.536;2023-01-31T15:05:51;36.72;;;4.95;;
58338;SDS011;48278;52.704;6.536;2023-01-31T15:08:31;22.63;;;2.78;;
58338;SDS011;48278;52.704;6.536;2023-01-31T15:11:10;34.08;;;3.35;;
58338;SDS011;48278;52.704;6.536;2023-01-31T15:13:58;24.70;;;3.25;;
58338;SDS011;48278;52.704;6.536;2023-01-31T15:16:29;30.27;;;3.00;;
58338;SDS011;48278;52.704;6.536;2023-01-31T15:19:09;44.72;;;4.47;;
58338;SDS011;48278;52.704;6.536;2023-01-31T15:24:18;28.00;;;3.10;;
58338;SDS011;48278;52.704;6.536;2023-01-31T15:26:44;36.05;;;3.47;;
58338;SDS011;48278;52.704;6.536;2023-01-31T15:29:18;28.27;;;2.38;;
58338;SDS011;48278;52.704;6.536;2023-01-31T15:31:49;33.42;;;3.05;;
58338;SDS011;48278;52.704;6.536;2023-01-31T15:34:20;30.23;;;2.83;;
58338;SDS011;48278;52.704;6.536;2023-01-31T15:37:03;31.95;;;2.85;;
58338;SDS011;48278;52.704;6.536;2023-01-31T15:39:48;35.88;;;3.33;;
58338;SDS011;48278;52.704;6.536;2023-01-31T15:44:49;36.50;;;3.13;;
58338;SDS011;48278;52.704;6.536;2023-01-31T15:47:19;30.50;;;2.97;;
58338;SDS011;48278;52.704;6.536;2023-01-31T15:49:47;43.33;;;3.30;;
58338;SDS011;48278;52.704;6.536;2023-01-31T15:52:14;35.38;;;3.28;;
58338;SDS011;48278;52.704;6.536;2023-01-31T15:54:49;32.13;;;3.30;;
58338;SDS011;48278;52.704;6.536;2023-01-31T15:57:15;37.35;;;3.35;;
58338;SDS011;48278;52.704;6.536;2023-01-31T15:59:42;27.07;;;2.30;;
58338;SDS011;48278;52.704;6.536;2023-01-31T16:02:16;30.65;;;2.95;;
58338;SDS011;48278;52.704;6.536;2023-01-31T16:04:50;40.42;;;4.05;;
58338;SDS011;48278;52.704;6.536;2023-01-31T16:07:17;36.05;;;3.08;;
58338;SDS011;48278;52.704;6.536;2023-01-31T16:09:45;44.65;;;3.75;;
58338;SDS011;48278;52.704;6.536;2023-01-31T16:12:12;36.30;;;3.03;;
58338;SDS011;48278;52.704;6.536;2023-01-31T16:14:40;44.88;;;3.92;;
58338;SDS011;48278;52.704;6.536;2023-01-31T16:17:09;38.40;;;4.93;;
58338;SDS011;48278;52.704;6.536;2023-01-31T16:19:35;41.40;;;3.87;;
58338;SDS011;48278;52.704;6.536;2023-01-31T16:22:01;41.20;;;4.32;;
58338;SDS011;48278;52.704;6.536;2023-01-31T16:24:28;49.78;;;4.43;;
58338;SDS011;48278;52.704;6.536;2023-01-31T16:27:01;33.13;;;3.50;;
58338;SDS011;48278;52.704;6.536;2023-01-31T16:32:26;41.55;;;3.60;;
58338;SDS011;48278;52.704;6.536;2023-01-31T16:34:54;39.50;;;3.35;;
58338;SDS011;48278;52.704;6.536;2023-01-31T16:39:58;38.72;;;3.35;;
58338;SDS011;48278;52.704;6.536;2023-01-31T16:42:26;39.10;;;4.05;;
58338;SDS011;48278;52.704;6.536;2023-01-31T16:44:55;44.10;;;4.53;;
58338;SDS011;48278;52.704;6.536;2023-01-31T16:47:45;36.80;;;3.97;;
58338;SDS011;48278;52.704;6.536;2023-01-31T16:52:50;37.97;;;3.75;;
58338;SDS011;48278;52.704;6.536;2023-01-31T16:55:30;35.15;;;2.92;;
58338;SDS011;48278;52.704;6.536;2023-01-31T16:57:56;40.25;;;3.72;;
58338;SDS011;48278;52.704;6.536;2023-01-31T17:02:47;33.55;;;3.30;;
58338;SDS011;48278;52.704;6.536;2023-01-31T17:05:15;37.95;;;3.72;;
58338;SDS011;48278;52.704;6.536;2023-01-31T17:10:08;48.38;;;5.57;;
58338;SDS011;48278;52.704;6.536;2023-01-31T17:12:42;39.00;;;3.67;;
58338;SDS011;48278;52.704;6.536;2023-01-31T17:15:15;50.10;;;5.93;;
58338;SDS011;48278;52.704;6.536;2023-01-31T17:17:42;38.45;;;3.85;;
58338;SDS011;48278;52.704;6.536;2023-01-31T17:20:11;38.30;;;4.10;;
58338;SDS011;48278;52.704;6.536;2023-01-31T17:22:38;46.50;;;3.60;;
58338;SDS011;48278;52.704;6.536;2023-01-31T17:25:13;49.83;;;4.22;;
58338;SDS011;48278;52.704;6.536;2023-01-31T17:27:40;37.35;;;3.55;;
58338;SDS011;48278;52.704;6.536;2023-01-31T17:30:07;51.45;;;4.85;;
58338;SDS011;48278;52.704;6.536;2023-01-31T17:32:33;39.20;;;3.38;;
58338;SDS011;48278;52.704;6.536;2023-01-31T17:35:00;50.15;;;4.50;;
58338;SDS011;48278;52.704;6.536;2023-01-31T17:37:25;42.40;;;3.78;;
58338;SDS011;48278;52.704;6.536;2023-01-31T17:39:51;43.08;;;3.55;;
58338;SDS011;48278;52.704;6.536;2023-01-31T17:42:18;40.72;;;3.10;;
58338;SDS011;48278;52.704;6.536;2023-01-31T17:44:45;40.10;;;3.10;;
58338;SDS011;48278;52.704;6.536;2023-01-31T17:47:11;41.08;;;3.90;;
58338;SDS011;48278;52.704;6.536;2023-01-31T17:49:36;65.50;;;4.35;;
58338;SDS011;48278;52.704;6.536;2023-01-31T17:52:02;59.90;;;5.70;;
58338;SDS011;48278;52.704;6.536;2023-01-31T17:54:28;34.70;;;3.08;;
58338;SDS011;48278;52.704;6.536;2023-01-31T17:56:54;46.63;;;4.43;;
58338;SDS011;48278;52.704;6.536;2023-01-31T17:59:20;48.30;;;3.50;;